N8IR-19 Weather Reports


Display with metric or nautical units.
time (UTC)temp
F
wind
direction
speed
MPH
gust
MPH
rain 1hr
in
rain 24hr
in
rain mn
in
humidity
%
barometer
mb
20190724020811 70 331 0.0 2.0 0.00 0.00 0.00 52 996.2
20190724020310 70 331 0.0 3.0 0.00 0.00 0.00 54 996.2
20190724015812 70 344 3.0 5.0 0.00 0.00 0.00 53 996.1
20190724015310 70 14 4.0 9.0 0.00 0.00 0.00 55 996.2
20190724014810 70 14 6.0 9.0 0.00 0.00 0.00 56 996.2
20190724014312 70 29 7.0 10.0 0.00 0.00 0.00 56 996.2
20190724013813 70 15 8.0 12.0 0.00 0.00 0.00 58 996.1
20190724013313 70 5 11.0 14.0 0.00 0.00 0.00 61 996.1
20190724012813 69 23 9.0 15.0 0.00 0.00 0.00 60 996.0
20190724012313 69 10 12.0 16.0 0.00 0.00 0.00 61 996.0
20190724011812 69 13 15.0 21.0 0.00 0.00 0.00 63 996.1
20190724011313 69 4 16.0 22.0 0.00 0.00 0.00 64 995.9
20190724010813 69 0 18.0 22.0 0.00 0.00 0.00 62 996.0
20190724010311 69 356 18.0 22.0 0.00 0.00 0.00 63 995.9
20190724005812 69 3 18.0 22.0 0.00 0.00 0.00 64 995.8
20190724005312 69 346 20.0 24.0 0.00 0.00 0.00 62 995.8
20190724004813 70 359 21.0 29.0 0.00 0.00 0.00 66 995.7
20190724004312 70 9 24.0 29.0 0.00 0.00 0.00 62 995.8
20190724003813 71 0 23.0 30.0 0.00 0.00 0.00 62 995.6
20190724003312 71 340 26.0 33.0 0.00 0.00 0.00 60 995.3
20190724002812 73 339 25.0 31.0 0.00 0.00 0.00 56 995.5
20190724002312 74 270 1.0 3.0 0.00 0.00 0.00 37 995.0
20190724001813 75 273 0.0 2.0 0.00 0.00 0.00 37 994.9
20190724001312 75 301 2.0 4.0 0.00 0.00 0.00 37 995.0
20190724000812 75 296 1.0 4.0 0.00 0.00 0.00 37 995.0
20190724000314 75 308 2.0 4.0 0.00 0.00 0.00 36 995.0
20190723235812 75 302 1.0 5.0 0.00 0.00 0.00 34 994.9
20190723235312 75 327 1.0 3.0 0.00 0.00 0.00 35 994.9
20190723234813 75 291 1.0 3.0 0.00 0.00 0.00 34 994.8
20190723234312 75 272 0.0 2.0 0.00 0.00 0.00 33 994.9
20190723233813 75 335 3.0 6.0 0.00 0.00 0.00 33 994.8
20190723233312 75 339 1.0 3.0 0.00 0.00 0.00 33 994.9
20190723232812 75 318 2.0 4.0 0.00 0.00 0.00 33 994.9
20190723232312 75 334 2.0 4.0 0.00 0.00 0.00 34 994.9
20190723231814 75 303 3.0 6.0 0.00 0.00 0.00 34 994.8
20190723231312 76 331 3.0 5.0 0.00 0.00 0.00 32 994.7
20190723230812 76 326 6.0 9.0 0.00 0.00 0.00 33 994.7
20190723230313 76 310 2.0 4.0 0.00 0.00 0.00 33 994.7
20190723225812 76 336 3.0 8.0 0.00 0.00 0.00 34 994.8
20190723225312 76 294 3.0 6.0 0.00 0.00 0.00 31 994.7
20190723224813 76 337 3.0 5.0 0.00 0.00 0.00 33 994.7
20190723224312 76 318 1.0 5.0 0.00 0.00 0.00 33 994.7
20190723223812 76 318 2.0 6.0 0.00 0.00 0.00 32 994.7
20190723223312 76 336 4.0 8.0 0.00 0.00 0.00 34 994.7
20190723222812 76 341 4.0 6.0 0.00 0.00 0.00 32 994.7
20190723222312 77 323 3.0 7.0 0.00 0.00 0.00 32 994.7
20190723221812 77 277 1.0 3.0 0.00 0.00 0.00 34 994.8
20190723221312 77 288 1.0 3.0 0.00 0.00 0.00 33 994.8
20190723220811 77 264 2.0 4.0 0.00 0.00 0.00 32 994.8
20190723220312 77 200 1.0 4.0 0.00 0.00 0.00 33 994.9
20190723215812 77 240 1.0 3.0 0.00 0.00 0.00 34 995.0
20190723215312 77 341 2.0 4.0 0.00 0.00 0.00 33 995.0
20190723214812 77 344 3.0 8.0 0.00 0.00 0.00 30 994.9
20190723214312 77 283 1.0 3.0 0.00 0.00 0.00 34 994.9
20190723213815 77 305 1.0 3.0 0.00 0.00 0.00 32 994.9
20190723213312 77 308 2.0 4.0 0.00 0.00 0.00 36 995.0
20190723212812 77 315 2.0 4.0 0.00 0.00 0.00 34 994.9
20190723212312 76 330 2.0 5.0 0.00 0.00 0.00 33 994.9
20190723211813 77 300 3.0 7.0 0.00 0.00 0.00 36 994.9
20190723211312 76 341 2.0 4.0 0.00 0.00 0.00 34 994.8
20190723210812 77 321 5.0 12.0 0.00 0.00 0.00 34 994.8
20190723210313 78 309 3.0 5.0 0.00 0.00 0.00 34 994.8
20190723205811 77 271 1.0 2.0 0.00 0.00 0.00 37 994.9
20190723205312 77 303 1.0 5.0 0.00 0.00 0.00 35 994.9
20190723204812 77 284 3.0 6.0 0.00 0.00 0.00 35 994.9
20190723204312 77 295 2.0 4.0 0.00 0.00 0.00 34 994.9
20190723203812 77 294 1.0 4.0 0.00 0.00 0.00 36 994.9
20190723203312 77 292 1.0 3.0 0.00 0.00 0.00 37 994.9
20190723202811 77 344 1.0 4.0 0.00 0.00 0.00 37 994.9
20190723202311 77 301 2.0 5.0 0.00 0.00 0.00 38 994.9
20190723201813 76 283 1.0 4.0 0.00 0.00 0.00 39 994.9
20190723201312 75 244 1.0 3.0 0.00 0.00 0.00 38 995.0
20190723200811 75 279 4.0 7.0 0.00 0.00 0.00 36 995.2
20190723200313 76 283 3.0 4.0 0.00 0.00 0.00 40 995.1
20190723195811 75 258 1.0 6.0 0.00 0.00 0.00 39 995.1
20190723195312 75 314 2.0 7.0 0.00 0.00 0.00 37 995.2
20190723194813 75 270 2.0 4.0 0.00 0.00 0.00 38 995.2
20190723194312 76 303 2.0 10.0 0.00 0.00 0.00 35 995.2
20190723193811 76 266 2.0 7.0 0.00 0.00 0.00 39 995.4
20190723193313 76 306 1.0 4.0 0.00 0.00 0.00 35 995.5
20190723192814 76 310 3.0 6.0 0.00 0.00 0.00 40 995.4
20190723192311 75 203 1.0 5.0 0.00 0.00 0.00 36 995.4
20190723191813 75 293 1.0 8.0 0.00 0.00 0.00 39 995.3
20190723191312 75 300 1.0 6.0 0.00 0.00 0.00 38 995.4
20190723190811 75 332 1.0 8.0 0.00 0.00 0.00 38 995.4
20190723190312 75 284 3.0 8.0 0.00 0.00 0.00 37 995.5
20190723185812 74 289 2.0 4.0 0.00 0.00 0.00 42 995.5
20190723185311 75 284 5.0 10.0 0.00 0.00 0.00 41 995.6
20190723184811 74 309 1.0 4.0 0.00 0.00 0.00 42 995.8
20190723184311 73 311 2.0 5.0 0.00 0.00 0.00 41 995.9
20190723183811 73 320 4.0 8.0 0.00 0.00 0.00 40 995.9
20190723183312 73 307 4.0 8.0 0.00 0.00 0.00 38 996.0
20190723182812 73 269 1.0 3.0 0.00 0.00 0.00 43 996.0
20190723182311 73 321 4.0 11.0 0.00 0.00 0.00 39 995.9
20190723181811 73 333 4.0 9.0 0.00 0.00 0.00 38 996.0
20190723181312 73 271 2.0 8.0 0.00 0.00 0.00 38 996.0
20190723180812 72 268 3.0 7.0 0.00 0.00 0.00 36 995.9
20190723180311 72 330 5.0 10.0 0.00 0.00 0.00 40 996.0
20190723175811 72 320 4.0 7.0 0.00 0.00 0.00 37 996.0
20190723175311 73 334 5.0 10.0 0.00 0.00 0.00 38 996.0
20190723174811 73 307 5.0 9.0 0.00 0.00 0.00 36 996.0
20190723174311 72 324 5.0 9.0 0.00 0.00 0.00 37 996.0
20190723173812 72 330 5.0 10.0 0.00 0.00 0.00 38 996.0
20190723173311 72 322 6.0 9.0 0.00 0.00 0.00 40 996.0
20190723172812 72 343 3.0 7.0 0.00 0.00 0.00 37 996.0
20190723172312 72 318 3.0 8.0 0.00 0.00 0.00 39 996.0
20190723171811 72 329 4.0 8.0 0.00 0.00 0.00 37 996.0
20190723171311 72 315 4.0 8.0 0.00 0.00 0.00 38 996.0
20190723170811 71 319 5.0 10.0 0.00 0.00 0.00 41 996.1
20190723170313 71 330 5.0 11.0 0.00 0.00 0.00 40 996.1
20190723165811 71 326 5.0 8.0 0.00 0.00 0.00 40 996.1
20190723165311 72 336 4.0 10.0 0.00 0.00 0.00 38 996.2
20190723164813 72 307 4.0 10.0 0.00 0.00 0.00 40 996.1
20190723164311 71 306 4.0 9.0 0.00 0.00 0.00 41 996.0
20190723163811 71 323 6.0 11.0 0.00 0.00 0.00 44 996.1
20190723163311 71 323 5.0 9.0 0.00 0.00 0.00 46 996.1
20190723162811 71 315 6.0 10.0 0.00 0.00 0.00 47 996.2
20190723162311 71 323 5.0 9.0 0.00 0.00 0.00 45 996.2
20190723161812 71 323 6.0 11.0 0.00 0.00 0.00 46 996.1
20190723161311 71 332 5.0 9.0 0.00 0.00 0.00 46 996.2
20190723160811 71 330 4.0 7.0 0.00 0.00 0.00 45 996.1
20190723160313 71 327 6.0 11.0 0.00 0.00 0.00 45 996.1
20190723155811 72 329 8.0 11.0 0.00 0.00 0.00 46 996.1
20190723155312 72 317 4.0 7.0 0.00 0.00 0.00 46 996.1
20190723154811 72 305 4.0 9.0 0.00 0.00 0.00 42 996.1
20190723154312 72 306 4.0 6.0 0.00 0.00 0.00 43 996.1
20190723153811 72 286 6.0 11.0 0.00 0.00 0.00 43 996.2
20190723153312 72 313 4.0 8.0 0.00 0.00 0.00 44 996.2
20190723152811 72 297 3.0 9.0 0.00 0.00 0.00 44 996.1
20190723152311 72 313 4.0 10.0 0.00 0.00 0.00 42 996.1
20190723151811 72 298 2.0 8.0 0.00 0.00 0.00 41 996.1
20190723151311 72 308 5.0 8.0 0.00 0.00 0.00 40 996.1
20190723150811 72 297 3.0 6.0 0.00 0.00 0.00 44 996.1
20190723150311 72 284 5.0 10.0 0.00 0.00 0.00 42 996.1
20190723145811 72 311 5.0 11.0 0.00 0.00 0.00 44 996.0
20190723145311 72 303 8.0 11.0 0.00 0.00 0.00 43 996.1
20190723144811 72 262 2.0 6.0 0.00 0.00 0.00 45 996.1
20190723144312 72 295 2.0 9.0 0.00 0.00 0.00 47 996.1
20190723143812 72 278 3.0 8.0 0.00 0.00 0.00 45 996.1
20190723143311 71 301 4.0 9.0 0.00 0.00 0.00 44 996.0
20190723142811 71 319 6.0 12.0 0.00 0.00 0.00 45 996.0
20190723142311 72 301 6.0 9.0 0.00 0.00 0.00 42 996.0
20190723141811 72 284 4.0 7.0 0.00 0.00 0.00 45 996.0
20190723141311 72 311 3.0 7.0 0.00 0.00 0.00 46 996.1
20190723140811 72 333 4.0 6.0 0.00 0.00 0.00 47 996.1
20190723140311 72 311 2.0 7.0 0.00 0.00 0.00 44 996.0
20190723135812 72 329 5.0 9.0 0.00 0.00 0.00 46 996.0
20190723135312 72 311 5.0 8.0 0.00 0.00 0.00 46 996.1
20190723134811 72 324 3.0 9.0 0.00 0.00 0.00 46 996.1
20190723134311 72 317 4.0 8.0 0.00 0.00 0.00 45 996.1
20190723133811 72 307 4.0 6.0 0.00 0.00 0.00 44 996.0
20190723133311 72 332 4.0 9.0 0.00 0.00 0.00 44 996.0
20190723132811 72 304 4.0 9.0 0.00 0.00 0.00 44 996.0
20190723132311 71 313 3.0 7.0 0.00 0.00 0.00 44 995.9
20190723131811 71 340 4.0 6.0 0.00 0.00 0.00 44 995.9
20190723131311 71 337 6.0 10.0 0.00 0.00 0.00 46 995.9
20190723130810 72 322 5.0 10.0 0.00 0.00 0.00 43 996.0
20190723130311 71 320 3.0 9.0 0.00 0.00 0.00 43 995.9
20190723125812 71 338 6.0 11.0 0.00 0.00 0.00 43 995.9
20190723125311 71 312 5.0 9.0 0.00 0.00 0.00 44 995.9
20190723124811 71 313 4.0 9.0 0.00 0.00 0.00 42 995.8
20190723124311 71 329 2.0 5.0 0.00 0.00 0.00 48 995.8
20190723123810 71 295 5.0 8.0 0.00 0.00 0.00 46 995.7
20190723123311 70 319 4.0 9.0 0.00 0.00 0.00 47 995.7
20190723122811 70 288 6.0 10.0 0.00 0.00 0.00 49 995.8
20190723122311 70 321 5.0 11.0 0.00 0.00 0.00 50 995.8
20190723121811 70 332 6.0 10.0 0.00 0.00 0.00 50 995.9
20190723121311 70 303 4.0 8.0 0.00 0.00 0.00 50 995.7
20190723120811 71 296 6.0 10.0 0.00 0.00 0.00 51 995.7
20190723120311 71 336 6.0 10.0 0.00 0.00 0.00 52 995.6
20190723115813 71 333 6.0 8.0 0.00 0.00 0.00 50 995.6
20190723115311 71 339 6.0 11.0 0.00 0.00 0.00 46 995.6
20190723114811 71 337 8.0 11.0 0.00 0.00 0.00 50 995.6
20190723114312 71 339 8.0 11.0 0.00 0.00 0.00 50 995.4
20190723113811 71 309 5.0 8.0 0.00 0.00 0.00 46 995.5
20190723113311 71 336 3.0 10.0 0.00 0.00 0.00 45 995.5
20190723112810 71 337 9.0 12.0 0.00 0.00 0.00 45 995.4
20190723112311 71 338 6.0 13.0 0.00 0.00 0.00 49 995.3
20190723111811 71 329 6.0 9.0 0.00 0.00 0.00 43 995.3
20190723111310 71 330 6.0 9.0 0.00 0.00 0.00 48 995.3
20190723110811 71 338 9.0 11.0 0.00 0.00 0.00 49 995.2
20190723110311 71 338 8.0 11.0 0.00 0.01 0.00 45 995.2
20190723105812 71 341 7.0 10.0 0.00 0.01 0.00 49 995.1
20190723105312 70 335 8.0 11.0 0.00 0.01 0.00 48 995.2
20190723104811 70 342 7.0 9.0 0.00 0.01 0.00 50 995.2
20190723104310 70 346 8.0 12.0 0.00 0.02 0.00 50 995.2
20190723103810 70 350 7.0 13.0 0.00 0.02 0.00 50 995.2
20190723103311 70 343 9.0 14.0 0.00 0.03 0.00 50 995.1
20190723102811 70 340 10.0 13.0 0.00 0.04 0.00 50 995.1
20190723102311 70 354 10.0 14.0 0.00 0.06 0.00 51 995.0
20190723101810 70 1 10.0 13.0 0.00 0.06 0.00 50 995.0
20190723101310 70 359 9.0 13.0 0.00 0.06 0.00 49 995.0
20190723100811 70 351 9.0 11.0 0.00 0.06 0.00 49 994.9
20190723100311 70 338 11.0 15.0 0.00 0.08 0.00 49 995.0
20190723095810 70 348 10.0 16.0 0.00 0.09 0.00 51 994.9
20190723095311 70 347 13.0 16.0 0.00 0.09 0.00 48 995.0
20190723094811 71 336 12.0 16.0 0.00 0.09 0.00 44 995.0
20190723094311 71 346 12.0 15.0 0.00 0.09 0.00 48 995.0
20190723093810 71 339 10.0 14.0 0.00 0.09 0.00 46 995.0
20190723093310 70 359 9.0 14.0 0.00 0.09 0.00 44 994.9
20190723092810 70 339 12.0 15.0 0.00 0.09 0.00 48 995.0
20190723092310 70 329 5.0 12.0 0.00 0.09 0.00 48 995.0
20190723091810 70 341 8.0 16.0 0.00 0.10 0.00 48 994.9
20190723091310 70 339 11.0 15.0 0.00 0.10 0.00 51 994.9
20190723090812 70 323 10.0 15.0 0.00 0.10 0.00 47 994.8
20190723090310 70 345 11.0 16.0 0.00 0.10 0.00 49 994.8
20190723085811 70 317 8.0 14.0 0.00 0.10 0.00 47 994.8
20190723085310 71 335 12.0 16.0 0.00 0.10 0.00 49 994.7
20190723084810 71 337 12.0 16.0 0.00 0.10 0.00 48 994.8
20190723084310 71 337 9.0 16.0 0.00 0.10 0.00 48 994.7
20190723083810 71 339 13.0 18.0 0.00 0.11 0.00 49 994.8
20190723083310 71 340 16.0 22.0 0.00 0.11 0.00 47 994.7
20190723082810 72 350 14.0 17.0 0.00 0.11 0.00 51 994.7
20190723082310 71 348 10.0 13.0 0.00 0.11 0.00 46 994.7
20190723081810 71 348 9.0 14.0 0.00 0.11 0.00 50 994.7
20190723081310 71 349 10.0 11.0 0.00 0.11 0.00 48 994.7
20190723080810 71 340 9.0 13.0 0.00 0.11 0.00 51 994.6
20190723080310 71 347 10.0 13.0 0.00 0.11 0.00 48 994.6
20190723075812 71 344 11.0 16.0 0.00 0.11 0.00 50 994.7
20190723075310 71 347 11.0 14.0 0.00 0.11 0.00 46 994.7
20190723074811 71 346 12.0 15.0 0.00 0.11 0.00 46 994.7
20190723074310 71 344 11.0 16.0 0.00 0.11 0.00 45 994.7
20190723073810 71 357 11.0 15.0 0.00 0.11 0.00 50 994.7
20190723073310 71 359 11.0 15.0 0.00 0.11 0.00 47 994.6
20190723072810 71 5 13.0 16.0 0.00 0.11 0.00 47 994.7
20190723072310 71 349 11.0 14.0 0.00 0.11 0.00 50 994.7
20190723071810 71 1 13.0 15.0 0.00 0.11 0.00 49 994.7
20190723071310 71 341 12.0 17.0 0.00 0.11 0.00 47 994.6
20190723070811 71 347 12.0 16.0 0.00 0.11 0.00 49 994.6
20190723070310 71 336 14.0 17.0 0.00 0.11 0.00 48 994.6
20190723065812 71 345 13.0 18.0 0.00 0.11 0.00 49 994.6
20190723065311 72 353 12.0 16.0 0.00 0.11 0.00 47 994.7
20190723064810 72 3 12.0 16.0 0.00 0.11 0.00 51 994.6
20190723064310 71 347 12.0 17.0 0.00 0.11 0.00 47 994.6
20190723063810 71 348 12.0 16.0 0.00 0.11 0.00 47 994.6
20190723063310 72 11 15.0 18.0 0.00 0.11 0.00 48 994.5
20190723062810 72 0 14.0 17.0 0.00 0.11 0.00 45 994.6
20190723062310 71 346 11.0 14.0 0.00 0.11 0.00 45 994.6
20190723061810 71 346 12.0 17.0 0.00 0.11 0.00 50 994.6
20190723061311 71 338 17.0 21.0 0.00 0.11 0.00 44 994.5
20190723060810 71 341 14.0 17.0 0.00 0.11 0.00 45 994.6
20190723060310 71 342 15.0 19.0 0.00 0.11 0.00 45 994.5
20190723055810 71 349 13.0 17.0 0.00 0.11 0.00 45 994.5
20190723055311 71 351 11.0 19.0 0.00 0.11 0.00 46 994.6
20190723054812 71 2 14.0 17.0 0.00 0.11 0.00 44 994.6
20190723054312 71 348 13.0 18.0 0.00 0.11 0.00 44 994.6
20190723053813 71 357 13.0 16.0 0.00 0.11 0.00 41 994.6
20190723053313 71 353 14.0 21.0 0.00 0.11 0.00 41 994.6
20190723052812 71 347 14.0 18.0 0.00 0.11 0.00 44 994.5
20190723052312 71 349 15.0 23.0 0.00 0.11 0.00 43 994.6
20190723051813 71 339 17.0 23.0 0.00 0.11 0.00 43 994.6
20190723051314 72 345 16.0 21.0 0.00 0.11 0.00 44 994.5
20190723050814 72 339 13.0 19.0 0.00 0.11 0.00 45 994.6
20190723050314 72 344 14.0 18.0 0.00 0.11 0.00 45 994.5
20190723045813 72 342 15.0 22.0 0.00 0.11 0.00 42 994.4
20190723045312 72 334 17.0 22.0 0.00 0.11 0.00 43 994.5
20190723044812 72 347 15.0 20.0 0.00 0.11 0.00 45 994.5
20190723044312 72 344 15.0 22.0 0.00 0.11 0.00 42 994.5
20190723043813 72 353 12.0 17.0 0.00 0.11 0.00 40 994.5
20190723043312 72 334 13.0 20.0 0.00 0.11 0.00 46 994.6
20190723042813 72 344 14.0 19.0 0.00 0.11 0.00 43 994.5
20190723042312 72 340 14.0 19.0 0.00 0.11 0.00 44 994.5
20190723041813 72 337 18.0 21.0 0.00 0.11 0.00 38 994.5
20190723041312 72 342 15.0 18.0 0.00 0.11 0.00 42 994.4
20190723040812 72 345 14.0 18.0 0.00 0.11 0.00 47 994.4
20190723040313 72 342 12.0 16.0 0.00 0.11 0.00 48 994.4
20190723035812 72 341 13.0 21.0 0.00 0.11 0.12 50 994.4
20190723035310 72 340 14.0 17.0 0.00 0.11 0.12 50 994.4
20190723034811 72 339 15.0 19.0 0.00 0.11 0.12 55 994.3
20190723034311 72 341 14.0 19.0 0.00 0.11 0.12 50 994.3
20190723033810 72 346 12.0 20.0 0.00 0.11 0.12 51 994.3
20190723033313 72 335 11.0 16.0 0.00 0.11 0.12 49 994.3
20190723032813 72 347 13.0 19.0 0.00 0.11 0.12 50 994.3
20190723032310 72 340 15.0 21.0 0.00 0.12 0.12 52 994.4
20190723031813 72 338 16.0 20.0 0.00 0.12 0.12 50 994.3
20190723031313 73 337 16.0 19.0 0.00 0.13 0.12 52 994.3
20190723030812 73 341 13.0 21.0 0.00 0.13 0.12 56 994.3
20190723030313 73 339 16.0 20.0 0.00 0.15 0.12 52 994.3
20190723025812 73 344 15.0 22.0 0.00 0.16 0.12 54 994.3
20190723025312 73 354 14.0 18.0 0.00 0.16 0.12 53 994.3
20190723024812 73 345 18.0 24.0 0.00 0.17 0.12 50 994.3
20190723024312 73 338 18.0 22.0 0.00 0.18 0.12 49 994.3
20190723023813 73 358 14.0 17.0 0.00 0.18 0.12 53 994.2
20190723023313 73 342 15.0 18.0 0.00 0.19 0.12 54 994.3
20190723022812 73 340 16.0 21.0 0.00 0.19 0.12 51 994.3
20190723022313 73 341 15.0 19.0 0.00 0.19 0.12 51 994.3
20190723021813 73 340 15.0 19.0 0.00 0.19 0.12 52 994.2
20190723021313 73 345 13.0 17.0 0.00 0.19 0.12 54 994.1